sensor_id;sensor_type;location;lat;lon;timestamp;pressure;altitude;pressure_sealevel;temperature;humidity
61571;BME280;47463;49.884;10.010;2023-02-18T00:00:01;102640.00000000001;;;10.4;95
61571;BME280;47463;49.884;10.010;2023-02-18T00:05:01;102650;;;10.2;96
61571;BME280;47463;49.884;10.010;2023-02-18T00:10:01;102650;;;10.2;97
61571;BME280;47463;49.884;10.010;2023-02-18T00:15:01;102659.99999999999;;;10.1;97
61571;BME280;47463;49.884;10.010;2023-02-18T00:20:01;102659.99999999999;;;10.1;97
61571;BME280;47463;49.884;10.010;2023-02-18T00:25:01;102659.99999999999;;;10;98
61571;BME280;47463;49.884;10.010;2023-02-18T00:30:01;102659.99999999999;;;9.9;98
61571;BME280;47463;49.884;10.010;2023-02-18T00:35:01;102650;;;9.9;99
61571;BME280;47463;49.884;10.010;2023-02-18T00:40:01;102640.00000000001;;;9.9;99
61571;BME280;47463;49.884;10.010;2023-02-18T00:45:01;102640.00000000001;;;9.9;99
61571;BME280;47463;49.884;10.010;2023-02-18T00:50:01;102630;;;9.8;99
61571;BME280;47463;49.884;10.010;2023-02-18T00:55:01;102640.00000000001;;;9.7;99
61571;BME280;47463;49.884;10.010;2023-02-18T01:00:01;102640.00000000001;;;9.8;99
61571;BME280;47463;49.884;10.010;2023-02-18T01:05:01;102640.00000000001;;;9.8;99
61571;BME280;47463;49.884;10.010;2023-02-18T01:10:01;102640.00000000001;;;9.8;99
61571;BME280;47463;49.884;10.010;2023-02-18T01:15:01;102640.00000000001;;;9.8;99
61571;BME280;47463;49.884;10.010;2023-02-18T01:20:01;102650;;;9.8;99
61571;BME280;47463;49.884;10.010;2023-02-18T01:25:01;102640.00000000001;;;9.7;99
61571;BME280;47463;49.884;10.010;2023-02-18T01:30:01;102650;;;9.7;99
61571;BME280;47463;49.884;10.010;2023-02-18T01:35:01;102650;;;9.6;99
61571;BME280;47463;49.884;10.010;2023-02-18T01:40:01;102650;;;9.7;99
61571;BME280;47463;49.884;10.010;2023-02-18T01:50:01;102640.00000000001;;;9.7;99
61571;BME280;47463;49.884;10.010;2023-02-18T01:55:01;102640.00000000001;;;9.7;99
61571;BME280;47463;49.884;10.010;2023-02-18T02:00:03;102640.00000000001;;;9.8;99
61571;BME280;47463;49.884;10.010;2023-02-18T02:05:01;102620;;;9.9;99
61571;BME280;47463;49.884;10.010;2023-02-18T02:10:01;102630;;;9.8;99
61571;BME280;47463;49.884;10.010;2023-02-18T02:15:05;102620;;;9.7;99
61571;BME280;47463;49.884;10.010;2023-02-18T02:20:16;102620;;;9.6;99
61571;BME280;47463;49.884;10.010;2023-02-18T02:25:03;102600;;;9.6;99
61571;BME280;47463;49.884;10.010;2023-02-18T02:30:10;102600;;;9.6;99
61571;BME280;47463;49.884;10.010;2023-02-18T02:35:01;102609.99999999999;;;9.6;99
61571;BME280;47463;49.884;10.010;2023-02-18T02:40:04;102590.00000000001;;;9.7;99
61571;BME280;47463;49.884;10.010;2023-02-18T02:45:03;102580;;;9.8;99
61571;BME280;47463;49.884;10.010;2023-02-18T02:50:02;102590.00000000001;;;9.9;98
61571;BME280;47463;49.884;10.010;2023-02-18T02:55:02;102580;;;9.9;98
61571;BME280;47463;49.884;10.010;2023-02-18T03:00:02;102590.00000000001;;;9.9;98
61571;BME280;47463;49.884;10.010;2023-02-18T03:05:06;102590.00000000001;;;9.9;98
61571;BME280;47463;49.884;10.010;2023-02-18T03:10:07;102580;;;9.8;99
61571;BME280;47463;49.884;10.010;2023-02-18T03:15:03;102580;;;9.9;98
61571;BME280;47463;49.884;10.010;2023-02-18T03:20:02;102580;;;9.8;97
61571;BME280;47463;49.884;10.010;2023-02-18T03:25:01;102580;;;9.8;97
61571;BME280;47463;49.884;10.010;2023-02-18T03:30:02;102580;;;9.8;97
61571;BME280;47463;49.884;10.010;2023-02-18T03:35:03;102580;;;9.8;97
61571;BME280;47463;49.884;10.010;2023-02-18T03:40:01;102580;;;9.8;97
61571;BME280;47463;49.884;10.010;2023-02-18T03:45:01;102580;;;9.8;97
61571;BME280;47463;49.884;10.010;2023-02-18T03:50:01;102559.99999999999;;;9.9;95
61571;BME280;47463;49.884;10.010;2023-02-18T03:55:01;102559.99999999999;;;9.8;96
61571;BME280;47463;49.884;10.010;2023-02-18T04:00:01;102570;;;9.8;96
61571;BME280;47463;49.884;10.010;2023-02-18T04:05:01;102570;;;9.7;96
61571;BME280;47463;49.884;10.010;2023-02-18T04:10:01;102570;;;9.6;97
61571;BME280;47463;49.884;10.010;2023-02-18T04:15:01;102580;;;9.6;97
61571;BME280;47463;49.884;10.010;2023-02-18T04:20:01;102570;;;9.5;97
61571;BME280;47463;49.884;10.010;2023-02-18T04:25:01;102580;;;9.6;97
61571;BME280;47463;49.884;10.010;2023-02-18T04:30:01;102570;;;9.6;98
61571;BME280;47463;49.884;10.010;2023-02-18T04:35:01;102570;;;9.6;98
61571;BME280;47463;49.884;10.010;2023-02-18T04:40:01;102559.99999999999;;;9.6;97
61571;BME280;47463;49.884;10.010;2023-02-18T04:45:01;102570;;;9.6;97
61571;BME280;47463;49.884;10.010;2023-02-18T04:50:01;102570;;;9.6;98
61571;BME280;47463;49.884;10.010;2023-02-18T04:55:01;102570;;;9.6;98
61571;BME280;47463;49.884;10.010;2023-02-18T05:00:01;102570;;;9.5;99
61571;BME280;47463;49.884;10.010;2023-02-18T05:05:01;102570;;;9.5;99
61571;BME280;47463;49.884;10.010;2023-02-18T05:10:01;102570;;;9.6;98
61571;BME280;47463;49.884;10.010;2023-02-18T05:15:01;102570;;;9.5;99
61571;BME280;47463;49.884;10.010;2023-02-18T05:20:01;102570;;;9.5;99
61571;BME280;47463;49.884;10.010;2023-02-18T05:25:01;102570;;;9.6;99
61571;BME280;47463;49.884;10.010;2023-02-18T05:30:01;102559.99999999999;;;9.5;99
61571;BME280;47463;49.884;10.010;2023-02-18T05:35:01;102559.99999999999;;;9.4;99
61571;BME280;47463;49.884;10.010;2023-02-18T05:40:01;102540.00000000001;;;9.4;99
61571;BME280;47463;49.884;10.010;2023-02-18T05:45:01;102550;;;9.4;99
61571;BME280;47463;49.884;10.010;2023-02-18T05:50:01;102550;;;9.4;99
61571;BME280;47463;49.884;10.010;2023-02-18T05:55:01;102530;;;9.4;99
61571;BME280;47463;49.884;10.010;2023-02-18T06:00:01;102530;;;9.5;99
61571;BME280;47463;49.884;10.010;2023-02-18T06:05:01;102520;;;9.5;99
61571;BME280;47463;49.884;10.010;2023-02-18T06:10:01;102509.99999999999;;;9.5;99
61571;BME280;47463;49.884;10.010;2023-02-18T06:15:01;102509.99999999999;;;9.6;99
61571;BME280;47463;49.884;10.010;2023-02-18T06:20:01;102520;;;9.5;99
61571;BME280;47463;49.884;10.010;2023-02-18T06:25:01;102520;;;9.5;99
61571;BME280;47463;49.884;10.010;2023-02-18T06:30:01;102509.99999999999;;;9.6;97
61571;BME280;47463;49.884;10.010;2023-02-18T06:35:01;102520;;;9.6;97
61571;BME280;47463;49.884;10.010;2023-02-18T06:40:01;102520;;;9.5;97
61571;BME280;47463;49.884;10.010;2023-02-18T06:45:01;102509.99999999999;;;9.5;97
61571;BME280;47463;49.884;10.010;2023-02-18T06:50:01;102509.99999999999;;;9.5;96
61571;BME280;47463;49.884;10.010;2023-02-18T06:55:01;102500;;;9.5;96
61571;BME280;47463;49.884;10.010;2023-02-18T07:00:01;102480;;;9.4;96
61571;BME280;47463;49.884;10.010;2023-02-18T07:05:01;102480;;;9.5;96
61571;BME280;47463;49.884;10.010;2023-02-18T07:10:01;102480;;;9.5;95
61571;BME280;47463;49.884;10.010;2023-02-18T07:15:01;102490.00000000001;;;9.5;95
61571;BME280;47463;49.884;10.010;2023-02-18T07:20:01;102480;;;9.6;93
61571;BME280;47463;49.884;10.010;2023-02-18T07:25:01;102480;;;9.7;92
61571;BME280;47463;49.884;10.010;2023-02-18T07:30:01;102470;;;9.7;91
61571;BME280;47463;49.884;10.010;2023-02-18T07:35:01;102459.99999999999;;;9.8;90
61571;BME280;47463;49.884;10.010;2023-02-18T07:40:01;102459.99999999999;;;9.8;89
61571;BME280;47463;49.884;10.010;2023-02-18T07:45:01;102459.99999999999;;;9.9;88
61571;BME280;47463;49.884;10.010;2023-02-18T07:50:01;102459.99999999999;;;10;87
61571;BME280;47463;49.884;10.010;2023-02-18T07:55:01;102450;;;10;85
61571;BME280;47463;49.884;10.010;2023-02-18T08:00:01;102450;;;10.1;84
61571;BME280;47463;49.884;10.010;2023-02-18T08:05:01;102440.00000000001;;;10.2;84
61571;BME280;47463;49.884;10.010;2023-02-18T08:10:01;102430;;;10.3;82
61571;BME280;47463;49.884;10.010;2023-02-18T08:15:01;102440.00000000001;;;10.4;82
61571;BME280;47463;49.884;10.010;2023-02-18T08:20:01;102420;;;10.5;80
61571;BME280;47463;49.884;10.010;2023-02-18T08:25:01;102430;;;10.5;80
61571;BME280;47463;49.884;10.010;2023-02-18T08:30:01;102430;;;10.5;80
61571;BME280;47463;49.884;10.010;2023-02-18T08:35:01;102400;;;10.5;81
61571;BME280;47463;49.884;10.010;2023-02-18T08:40:01;102390;;;10.5;81
61571;BME280;47463;49.884;10.010;2023-02-18T08:45:01;102380;;;10.5;81
61571;BME280;47463;49.884;10.010;2023-02-18T08:50:01;102390;;;10.5;82
61571;BME280;47463;49.884;10.010;2023-02-18T08:55:01;102370;;;10.6;81
61571;BME280;47463;49.884;10.010;2023-02-18T09:00:01;102400;;;10.6;81
61571;BME280;47463;49.884;10.010;2023-02-18T09:05:01;102400;;;10.6;80
61571;BME280;47463;49.884;10.010;2023-02-18T09:10:01;102400;;;10.6;80
61571;BME280;47463;49.884;10.010;2023-02-18T09:15:01;102400;;;10.6;79
61571;BME280;47463;49.884;10.010;2023-02-18T09:20:01;102409.99979999999;;;10.7;79
61571;BME280;47463;49.884;10.010;2023-02-18T09:25:01;102409.99999999999;;;10.7;79
61571;BME280;47463;49.884;10.010;2023-02-18T09:30:01;102400;;;10.9;78
61571;BME280;47463;49.884;10.010;2023-02-18T09:35:01;102390;;;10.9;77
61571;BME280;47463;49.884;10.010;2023-02-18T09:40:01;102390;;;11;76
61571;BME280;47463;49.884;10.010;2023-02-18T09:45:01;102390;;;11.1;76
61571;BME280;47463;49.884;10.010;2023-02-18T09:50:03;102390;;;11.2;75
61571;BME280;47463;49.884;10.010;2023-02-18T09:55:01;102409.99999999999;;;11.2;75
61571;BME280;47463;49.884;10.010;2023-02-18T10:00:02;102390;;;11.4;73
61571;BME280;47463;49.884;10.010;2023-02-18T10:05:01;102400;;;11.4;73
61571;BME280;47463;49.884;10.010;2023-02-18T10:10:02;102390;;;11.4;72
61571;BME280;47463;49.884;10.010;2023-02-18T10:15:01;102380;;;11.4;73
61571;BME280;47463;49.884;10.010;2023-02-18T10:20:01;102390;;;11.4;73
61571;BME280;47463;49.884;10.010;2023-02-18T10:25:01;102380;;;11.3;73
61571;BME280;47463;49.884;10.010;2023-02-18T10:30:02;102380;;;11.2;72
61571;BME280;47463;49.884;10.010;2023-02-18T10:35:02;102380;;;11.2;72
61571;BME280;47463;49.884;10.010;2023-02-18T10:40:06;102380;;;11.2;72
61571;BME280;47463;49.884;10.010;2023-02-18T10:45:03;102380;;;11.2;72
61571;BME280;47463;49.884;10.010;2023-02-18T10:50:02;102380;;;11.2;73
61571;BME280;47463;49.884;10.010;2023-02-18T10:55:01;102350;;;11.2;73
61571;BME280;47463;49.884;10.010;2023-02-18T11:00:02;102350;;;11.2;73
61571;BME280;47463;49.884;10.010;2023-02-18T11:05:06;102350;;;11.2;73
61571;BME280;47463;49.884;10.010;2023-02-18T11:10:06;102350;;;11.2;72
61571;BME280;47463;49.884;10.010;2023-02-18T11:15:04;102350;;;11.2;72
61571;BME280;47463;49.884;10.010;2023-02-18T11:20:01;102350;;;11.2;72
61571;BME280;47463;49.884;10.010;2023-02-18T11:25:02;102330;;;11.1;72
61571;BME280;47463;49.884;10.010;2023-02-18T11:30:02;102330;;;11;73
61571;BME280;47463;49.884;10.010;2023-02-18T11:35:01;102320;;;11;72
61571;BME280;47463;49.884;10.010;2023-02-18T11:40:01;102310;;;11;72
61571;BME280;47463;49.884;10.010;2023-02-18T11:45:01;102300;;;11;72
61571;BME280;47463;49.884;10.010;2023-02-18T11:50:10;102310;;;11;72
61571;BME280;47463;49.884;10.010;2023-02-18T11:55:02;102310;;;11;72
61571;BME280;47463;49.884;10.010;2023-02-18T12:00:01;102290;;;11;72
61571;BME280;47463;49.884;10.010;2023-02-18T12:05:02;102290;;;11;71
61571;BME280;47463;49.884;10.010;2023-02-18T12:10:02;102300;;;11;71
61571;BME280;47463;49.884;10.010;2023-02-18T12:15:01;102290;;;11;71
61571;BME280;47463;49.884;10.010;2023-02-18T12:20:06;102260;;;11;70
61571;BME280;47463;49.884;10.010;2023-02-18T12:25:03;102260;;;11.2;70
61571;BME280;47463;49.884;10.010;2023-02-18T12:30:06;102260;;;11.2;69
61571;BME280;47463;49.884;10.010;2023-02-18T12:35:06;102250;;;11.3;69
61571;BME280;47463;49.884;10.010;2023-02-18T12:40:03;102230;;;11.4;69
61571;BME280;47463;49.884;10.010;2023-02-18T12:45:06;102230;;;11.4;69
61571;BME280;47463;49.884;10.010;2023-02-18T12:50:02;102230;;;11.3;69
61571;BME280;47463;49.884;10.010;2023-02-18T12:55:07;102250;;;11.3;69
61571;BME280;47463;49.884;10.010;2023-02-18T13:05:03;102240;;;11.3;69
61571;BME280;47463;49.884;10.010;2023-02-18T13:10:06;102250;;;11.4;69
61571;BME280;47463;49.884;10.010;2023-02-18T13:15:02;102260;;;11.4;69
61571;BME280;47463;49.884;10.010;2023-02-18T13:20:02;102260;;;11.3;68
61571;BME280;47463;49.884;10.010;2023-02-18T13:25:01;102270;;;11.2;69
61571;BME280;47463;49.884;10.010;2023-02-18T13:30:06;102270;;;11.1;69
61571;BME280;47463;49.884;10.010;2023-02-18T13:35:02;102280;;;11.1;69
61571;BME280;47463;49.884;10.010;2023-02-18T13:40:01;102290;;;11.1;69
61571;BME280;47463;49.884;10.010;2023-02-18T13:45:22;102280;;;11.1;69
61571;BME280;47463;49.884;10.010;2023-02-18T13:50:12;102260;;;11.2;69
61571;BME280;47463;49.884;10.010;2023-02-18T13:55:01;102260;;;11.2;69
61571;BME280;47463;49.884;10.010;2023-02-18T14:00:02;102260;;;11.2;69
61571;BME280;47463;49.884;10.010;2023-02-18T14:05:19;102250;;;11.2;70
61571;BME280;47463;49.884;10.010;2023-02-18T14:10:01;102270;;;11.2;70
61571;BME280;47463;49.884;10.010;2023-02-18T14:15:01;102270;;;11.2;70
61571;BME280;47463;49.884;10.010;2023-02-18T14:25:02;102250;;;11.1;72
61571;BME280;47463;49.884;10.010;2023-02-18T14:30:01;102260;;;11.1;72
61571;BME280;47463;49.884;10.010;2023-02-18T14:35:05;102260;;;11;72
61571;BME280;47463;49.884;10.010;2023-02-18T14:40:03;102270;;;10.9;73
61571;BME280;47463;49.884;10.010;2023-02-18T14:45:04;102270;;;10.9;74
61571;BME280;47463;49.884;10.010;2023-02-18T14:50:02;102260;;;10.8;74
61571;BME280;47463;49.884;10.010;2023-02-18T14:55:01;102280;;;10.7;75
61571;BME280;47463;49.884;10.010;2023-02-18T15:00:01;102280;;;10.6;76
61571;BME280;47463;49.884;10.010;2023-02-18T15:05:07;102280;;;10.4;77
61571;BME280;47463;49.884;10.010;2023-02-18T15:10:01;102290;;;10.3;78
61571;BME280;47463;49.884;10.010;2023-02-18T15:15:01;102290;;;10.3;79
61571;BME280;47463;49.884;10.010;2023-02-18T15:20:02;102290;;;10.2;80
61571;BME280;47463;49.884;10.010;2023-02-18T15:25:01;102290;;;10.2;80
61571;BME280;47463;49.884;10.010;2023-02-18T15:30:03;102310;;;10.1;80
61571;BME280;47463;49.884;10.010;2023-02-18T15:35:01;102300;;;10.1;81
61571;BME280;47463;49.884;10.010;2023-02-18T15:40:01;102300;;;10.1;81
61571;BME280;47463;49.884;10.010;2023-02-18T15:45:01;102300;;;10;81
61571;BME280;47463;49.884;10.010;2023-02-18T15:50:01;102290;;;10;81
61571;BME280;47463;49.884;10.010;2023-02-18T15:55:02;102300;;;9.9;82
61571;BME280;47463;49.884;10.010;2023-02-18T16:00:02;102300;;;9.9;82
61571;BME280;47463;49.884;10.010;2023-02-18T16:05:01;102300;;;9.8;83
61571;BME280;47463;49.884;10.010;2023-02-18T16:10:13;102300;;;9.8;83
61571;BME280;47463;49.884;10.010;2023-02-18T16:15:01;102320;;;9.7;83
61571;BME280;47463;49.884;10.010;2023-02-18T16:20:02;102310;;;9.7;83
61571;BME280;47463;49.884;10.010;2023-02-18T16:25:06;102310;;;9.6;84
61571;BME280;47463;49.884;10.010;2023-02-18T16:30:02;102310;;;9.6;85
61571;BME280;47463;49.884;10.010;2023-02-18T16:35:01;102320;;;9.5;85
61571;BME280;47463;49.884;10.010;2023-02-18T16:40:01;102320;;;9.4;86
61571;BME280;47463;49.884;10.010;2023-02-18T16:45:01;102320;;;9.4;86
61571;BME280;47463;49.884;10.010;2023-02-18T16:50:01;102310;;;9.4;86
61571;BME280;47463;49.884;10.010;2023-02-18T16:55:01;102320;;;9.4;86
61571;BME280;47463;49.884;10.010;2023-02-18T17:00:01;102320;;;9.3;87
61571;BME280;47463;49.884;10.010;2023-02-18T17:05:01;102330;;;9.3;87
61571;BME280;47463;49.884;10.010;2023-02-18T17:10:01;102330;;;9.2;88
61571;BME280;47463;49.884;10.010;2023-02-18T17:15:01;102340;;;9;89
61571;BME280;47463;49.884;10.010;2023-02-18T17:20:01;102340;;;9;89
61571;BME280;47463;49.884;10.010;2023-02-18T17:25:01;102340;;;9;90
61571;BME280;47463;49.884;10.010;2023-02-18T17:30:01;102350;;;9;89
61571;BME280;47463;49.884;10.010;2023-02-18T17:35:01;102350;;;9;89
61571;BME280;47463;49.884;10.010;2023-02-18T17:40:01;102350;;;9;89
61571;BME280;47463;49.884;10.010;2023-02-18T17:45:01;102350;;;9.1;89
61571;BME280;47463;49.884;10.010;2023-02-18T17:50:01;102350;;;9.1;89
61571;BME280;47463;49.884;10.010;2023-02-18T17:55:01;102350;;;9.1;89
61571;BME280;47463;49.884;10.010;2023-02-18T18:00:01;102350;;;9.1;88
61571;BME280;47463;49.884;10.010;2023-02-18T18:05:01;102360;;;9.1;88
61571;BME280;47463;49.884;10.010;2023-02-18T18:10:01;102350;;;9.2;87
61571;BME280;47463;49.884;10.010;2023-02-18T18:15:01;102360;;;9.2;87
61571;BME280;47463;49.884;10.010;2023-02-18T18:20:01;102370;;;9.3;86
61571;BME280;47463;49.884;10.010;2023-02-18T18:25:01;102360;;;9.4;86
61571;BME280;47463;49.884;10.010;2023-02-18T18:30:01;102360;;;9.4;85
61571;BME280;47463;49.884;10.010;2023-02-18T18:35:01;102360;;;9.5;85
61571;BME280;47463;49.884;10.010;2023-02-18T18:40:01;102360;;;9.6;84
61571;BME280;47463;49.884;10.010;2023-02-18T18:45:01;102370;;;9.6;83
61571;BME280;47463;49.884;10.010;2023-02-18T18:50:01;102370;;;9.6;83
61571;BME280;47463;49.884;10.010;2023-02-18T18:55:01;102360;;;9.6;83
61571;BME280;47463;49.884;10.010;2023-02-18T19:00:01;102380;;;9.6;83
61571;BME280;47463;49.884;10.010;2023-02-18T19:05:01;102370;;;9.6;82
61571;BME280;47463;49.884;10.010;2023-02-18T19:10:01;102370;;;9.7;82
61571;BME280;47463;49.884;10.010;2023-02-18T19:15:01;102370;;;9.7;82
61571;BME280;47463;49.884;10.010;2023-02-18T19:20:01;102370;;;9.7;81
61571;BME280;47463;49.884;10.010;2023-02-18T19:25:01;102380;;;9.7;81
61571;BME280;47463;49.884;10.010;2023-02-18T19:30:01;102370;;;9.7;81
61571;BME280;47463;49.884;10.010;2023-02-18T19:35:01;102380;;;9.7;81
61571;BME280;47463;49.884;10.010;2023-02-18T19:40:01;102380;;;9.7;81
61571;BME280;47463;49.884;10.010;2023-02-18T19:45:01;102380;;;9.7;81
61571;BME280;47463;49.884;10.010;2023-02-18T19:50:01;102370;;;9.6;81
61571;BME280;47463;49.884;10.010;2023-02-18T19:55:01;102400;;;9.7;81
61571;BME280;47463;49.884;10.010;2023-02-18T20:00:01;102380;;;9.7;81
61571;BME280;47463;49.884;10.010;2023-02-18T20:05:01;102380;;;9.7;80
61571;BME280;47463;49.884;10.010;2023-02-18T20:10:01;102390;;;9.7;80
61571;BME280;47463;49.884;10.010;2023-02-18T20:15:01;102390;;;9.7;80
61571;BME280;47463;49.884;10.010;2023-02-18T20:20:01;102380;;;9.7;80
61571;BME280;47463;49.884;10.010;2023-02-18T20:25:01;102390;;;9.7;80
61571;BME280;47463;49.884;10.010;2023-02-18T20:30:01;102360;;;9.7;80
61571;BME280;47463;49.884;10.010;2023-02-18T20:35:01;102380;;;9.7;80
61571;BME280;47463;49.884;10.010;2023-02-18T20:40:01;102380;;;9.6;81
61571;BME280;47463;49.884;10.010;2023-02-18T20:45:01;102390;;;9.7;80
61571;BME280;47463;49.884;10.010;2023-02-18T20:50:01;102390;;;9.6;81
61571;BME280;47463;49.884;10.010;2023-02-18T20:55:01;102390;;;9.6;81
61571;BME280;47463;49.884;10.010;2023-02-18T21:00:01;102400;;;9.6;81
61571;BME280;47463;49.884;10.010;2023-02-18T21:05:01;102400;;;9.6;81
61571;BME280;47463;49.884;10.010;2023-02-18T21:10:01;102400;;;9.4;82
61571;BME280;47463;49.884;10.010;2023-02-18T21:15:01;102390;;;9.6;81
61571;BME280;47463;49.884;10.010;2023-02-18T21:20:01;102390;;;9.5;82
61571;BME280;47463;49.884;10.010;2023-02-18T21:25:01;102390;;;9.5;81
61571;BME280;47463;49.884;10.010;2023-02-18T21:30:01;102390;;;9.5;82
61571;BME280;47463;49.884;10.010;2023-02-18T21:35:01;102390;;;9.5;82
61571;BME280;47463;49.884;10.010;2023-02-18T21:40:01;102390;;;9.5;82
61571;BME280;47463;49.884;10.010;2023-02-18T21:45:01;102390;;;9.5;82
61571;BME280;47463;49.884;10.010;2023-02-18T21:50:01;102390;;;9.4;82
61571;BME280;47463;49.884;10.010;2023-02-18T21:55:01;102390;;;9.5;81
61571;BME280;47463;49.884;10.010;2023-02-18T22:00:01;102370;;;9.4;82
61571;BME280;47463;49.884;10.010;2023-02-18T22:05:01;102370;;;9.4;82
61571;BME280;47463;49.884;10.010;2023-02-18T22:10:01;102380;;;9.4;82
61571;BME280;47463;49.884;10.010;2023-02-18T22:15:01;102380;;;9.5;81
61571;BME280;47463;49.884;10.010;2023-02-18T22:20:01;102380;;;9.4;82
61571;BME280;47463;49.884;10.010;2023-02-18T22:25:01;102370;;;9.4;82
61571;BME280;47463;49.884;10.010;2023-02-18T22:30:01;102350;;;9.4;82
61571;BME280;47463;49.884;10.010;2023-02-18T22:35:01;102350;;;9.4;82
61571;BME280;47463;49.884;10.010;2023-02-18T22:40:01;102350;;;9.5;82
61571;BME280;47463;49.884;10.010;2023-02-18T22:45:01;102340;;;9.4;82
61571;BME280;47463;49.884;10.010;2023-02-18T22:50:01;102350;;;9.4;82
61571;BME280;47463;49.884;10.010;2023-02-18T22:55:01;102330;;;9.3;82
61571;BME280;47463;49.884;10.010;2023-02-18T23:00:01;102320;;;9.4;82
61571;BME280;47463;49.884;10.010;2023-02-18T23:05:01;102320;;;9.4;82
61571;BME280;47463;49.884;10.010;2023-02-18T23:10:01;102320;;;9.4;82
61571;BME280;47463;49.884;10.010;2023-02-18T23:15:01;102310;;;9.4;82
61571;BME280;47463;49.884;10.010;2023-02-18T23:20:01;102310;;;9.4;81
61571;BME280;47463;49.884;10.010;2023-02-18T23:25:01;102290;;;9.4;82
61571;BME280;47463;49.884;10.010;2023-02-18T23:30:01;102290;;;9.3;82
61571;BME280;47463;49.884;10.010;2023-02-18T23:35:01;102290;;;9.2;82
61571;BME280;47463;49.884;10.010;2023-02-18T23:40:01;102290;;;9.3;82
61571;BME280;47463;49.884;10.010;2023-02-18T23:45:01;102280;;;9.3;82
61571;BME280;47463;49.884;10.010;2023-02-18T23:50:01;102290;;;9.3;82
61571;BME280;47463;49.884;10.010;2023-02-18T23:55:01;102300;;;9.3;82
